Argonne, WI (54511)

11:44 PM CDT on August 29, 2015 (GMT -0500)
Argonne, WI | | Change Station
CLOSE
Current Station
Personal Weather Station
Location: Argonne, WI
Elevation: 1620 ft
Nearby Weather Stations

Elev 1620 ft 45.65 °N, 88.86 °W | Updated 3 minutes ago

Clear
Clear
59.2 °F
Feels Like 59.2 °F
N
0.0
Wind Variable Wind from SW
Gusts 0.0 mph

Today
High -- | Low -- °F
--% Chance of Precip.
Yesterday
High -- | Low -- °F
Precip. -- in
6:12 AM 7:39 PM
Full, 100% visible
Pressure 30.05 in
Visibility 5.0 miles
Clouds Clear
Dew Point 58 °F
Humidity 97%
Rainfall 0.00 in
Snow Depth Not available.
UV 0 out of 12
Pollen 8.90 out of 12
Air Quality Not available.
Flu Activity Not available.
METAR KEGV 300435Z AUTO 00000KT 5SM BR CLR 16/15 A3005 RMK AO2 T01550154
Pressure 30.05 in
Visibility 5.0 miles
Clouds Clear
Dew Point 58 °F
Humidity 97%
Rainfall 0.00 in
Snow Depth Not available.
UV 0 out of 12
Pollen 8.90 out of 12
Air Quality Not available.
Flu Activity Not available.
METAR KEGV 300435Z AUTO 00000KT 5SM BR CLR 16/15 A3005 RMK AO2 T01550154

10-Day Weather Forecast

×

Almanac

Astronomy

Aug. 29, 2015 Rise Set
Actual Time
Civil Twilight
Nautical Twilight
Astronomical Twilight
Moon
Length of Visible Light
Length of Day
Tomorrow will be .
, % of the Moon is Illuminated

Today's Extremes

State Highs State Lows

Community

WunderPhotos

Upload Photos

1,850,887 photos uploaded!

WunderBlogs® & News

Nearby

Air Quality

  Air Quality AQ Index Pollutant
Not available.

Snow Depth

Station Depth Elevation

Earthquake Activity

City Distance Mag. Time & Date
Minimum magnitude displayed is 2.5.

Coastal Water Temperatures

Place Temperature

Stations

Nearby Weather Stations

Station Location Temp. Windchill Dew Point Humidity Wind Precip. Elev Updated Type